createdAt,value
2017-08-29T00:00:27.691Z,21.44
2017-08-29T00:02:54.090Z,21.45
2017-08-29T00:05:20.461Z,21.51
2017-08-29T00:07:46.826Z,21.53
2017-08-29T00:10:13.199Z,21.32
2017-08-29T00:12:39.569Z,21.22
2017-08-29T00:15:05.976Z,21.04
2017-08-29T00:17:32.329Z,21.26
2017-08-29T00:19:58.682Z,21.30
2017-08-29T00:22:25.027Z,21.29
2017-08-29T00:24:51.408Z,21.41
2017-08-29T00:27:17.824Z,21.38
2017-08-29T00:29:44.210Z,21.47
2017-08-29T00:32:10.615Z,21.36
2017-08-29T00:34:37.039Z,21.28
2017-08-29T00:37:03.423Z,20.98
2017-08-29T00:39:29.819Z,21.25
2017-08-29T00:41:56.201Z,21.41
2017-08-29T00:44:22.660Z,21.33
2017-08-29T00:46:49.082Z,21.24
2017-08-29T00:49:15.539Z,21.34
2017-08-29T00:51:41.945Z,21.28
2017-08-29T00:54:08.351Z,21.07
2017-08-29T00:56:34.723Z,21.05
2017-08-29T00:59:01.122Z,20.83
2017-08-29T01:01:27.519Z,20.71
2017-08-29T01:03:53.926Z,20.61
2017-08-29T01:06:20.329Z,20.66
2017-08-29T01:08:46.683Z,20.85
2017-08-29T01:11:13.194Z,20.90
2017-08-29T01:13:39.591Z,20.77
2017-08-29T01:16:06.062Z,20.80
2017-08-29T01:18:32.484Z,20.60
2017-08-29T01:20:58.907Z,20.59
2017-08-29T01:23:25.321Z,19.98
2017-08-29T01:25:51.773Z,20.51
2017-08-29T01:28:18.209Z,20.42
2017-08-29T01:30:44.655Z,20.71
2017-08-29T01:33:11.068Z,20.50
2017-08-29T01:35:37.486Z,20.68
2017-08-29T01:38:03.921Z,20.69
2017-08-29T01:40:30.367Z,20.63
2017-08-29T01:42:56.807Z,20.40
2017-08-29T01:45:23.294Z,20.39
2017-08-29T01:47:49.729Z,20.41
2017-08-29T01:50:16.146Z,20.34
2017-08-29T01:52:42.551Z,20.47
2017-08-29T01:55:09.004Z,20.32
2017-08-29T01:57:35.418Z,19.94
2017-08-29T02:00:01.833Z,20.13
2017-08-29T02:02:28.317Z,20.25
2017-08-29T02:04:54.744Z,20.14
2017-08-29T02:07:21.180Z,19.94
2017-08-29T02:09:47.640Z,19.90
2017-08-29T02:12:14.066Z,20.17
2017-08-29T02:14:40.457Z,20.25
2017-08-29T02:17:06.814Z,20.21
2017-08-29T02:19:33.195Z,19.98
2017-08-29T02:21:59.575Z,19.90
2017-08-29T02:24:25.957Z,20.09
2017-08-29T02:26:52.544Z,20.37
2017-08-29T02:29:18.911Z,20.31
2017-08-29T02:31:45.308Z,20.22
2017-08-29T02:34:11.692Z,20.37
2017-08-29T02:36:38.048Z,20.46
2017-08-29T02:39:04.449Z,20.49
2017-08-29T02:41:30.820Z,20.26
2017-08-29T02:43:57.179Z,20.17
2017-08-29T02:46:23.553Z,20.26
2017-08-29T02:48:49.947Z,19.76
2017-08-29T02:51:16.278Z,20.00
2017-08-29T02:53:42.637Z,20.23
2017-08-29T02:56:08.980Z,20.04
2017-08-29T02:58:35.338Z,20.05
2017-08-29T03:01:01.724Z,20.24
2017-08-29T03:03:28.101Z,20.37
2017-08-29T03:05:54.469Z,20.38
2017-08-29T03:08:20.847Z,20.07
2017-08-29T03:10:47.212Z,20.22
2017-08-29T03:13:13.636Z,20.33
2017-08-29T03:15:40.025Z,20.09
2017-08-29T03:18:06.368Z,20.13
2017-08-29T03:20:32.757Z,19.89
2017-08-29T03:22:59.139Z,20.04
2017-08-29T03:25:25.536Z,20.07
2017-08-29T03:27:51.896Z,20.19
2017-08-29T03:30:18.339Z,20.23
2017-08-29T03:32:44.737Z,20.22
2017-08-29T03:35:11.112Z,20.29
2017-08-29T03:37:38.441Z,20.20
2017-08-29T03:40:04.854Z,20.07
2017-08-29T03:42:31.238Z,20.20
2017-08-29T03:44:57.582Z,20.09
2017-08-29T03:47:23.948Z,19.95
2017-08-29T03:49:50.293Z,19.74
2017-08-29T03:52:16.679Z,19.93
2017-08-29T03:54:43.110Z,20.00
2017-08-29T03:57:09.455Z,19.86
2017-08-29T03:59:35.823Z,19.81
2017-08-29T04:02:02.187Z,20.01
2017-08-29T04:04:28.560Z,20.04
2017-08-29T04:06:54.969Z,19.76
2017-08-29T04:09:21.336Z,19.59
2017-08-29T04:11:47.694Z,19.67
2017-08-29T04:14:14.097Z,19.79
2017-08-29T04:16:40.486Z,19.50
2017-08-29T04:19:06.846Z,19.63
2017-08-29T04:21:33.190Z,19.76
2017-08-29T04:23:59.543Z,19.86
2017-08-29T04:26:25.923Z,19.66
2017-08-29T04:28:52.307Z,19.51
2017-08-29T04:31:18.689Z,19.40
2017-08-29T04:33:45.077Z,19.55
2017-08-29T04:36:11.477Z,19.64
2017-08-29T04:38:37.822Z,19.71
2017-08-29T04:41:04.304Z,19.68
2017-08-29T04:43:30.689Z,19.66
2017-08-29T04:45:57.065Z,19.63
2017-08-29T04:48:23.456Z,19.66
2017-08-29T04:50:49.836Z,19.54
2017-08-29T04:53:16.184Z,19.63
2017-08-29T04:55:42.579Z,19.44
2017-08-29T04:58:08.938Z,19.61
2017-08-29T05:00:35.408Z,19.65
2017-08-29T05:03:01.842Z,19.46
2017-08-29T05:05:28.220Z,19.64
2017-08-29T05:07:54.745Z,19.69
2017-08-29T05:10:21.161Z,19.67
2017-08-29T05:12:47.553Z,19.41
2017-08-29T05:15:13.947Z,19.49
2017-08-29T05:17:40.312Z,19.60
2017-08-29T05:20:06.678Z,19.61
2017-08-29T05:22:33.038Z,19.54
2017-08-29T05:24:59.393Z,19.72
2017-08-29T05:27:25.751Z,19.76
2017-08-29T05:29:52.118Z,19.80
2017-08-29T05:32:18.536Z,19.66
2017-08-29T05:34:44.894Z,19.47
2017-08-29T05:37:11.269Z,19.49
2017-08-29T05:39:37.657Z,19.54
2017-08-29T05:42:04.042Z,19.66
2017-08-29T05:44:30.396Z,19.62
2017-08-29T05:46:56.744Z,19.56
2017-08-29T05:49:23.108Z,19.67
2017-08-29T05:51:49.472Z,19.78
2017-08-29T05:54:15.857Z,19.85
2017-08-29T05:56:42.237Z,19.77
2017-08-29T05:59:08.638Z,19.87
2017-08-29T06:01:35.068Z,19.83
2017-08-29T06:04:01.474Z,19.82
2017-08-29T06:06:27.862Z,19.87
2017-08-29T06:08:54.296Z,19.76
2017-08-29T06:11:20.743Z,19.88
2017-08-29T06:13:47.163Z,19.96
2017-08-29T06:16:13.589Z,20.01
2017-08-29T06:18:40.037Z,20.01
2017-08-29T06:21:06.391Z,20.01
2017-08-29T06:23:32.781Z,20.04
2017-08-29T06:25:59.154Z,20.05
2017-08-29T06:28:25.551Z,20.06
2017-08-29T06:30:52.044Z,20.12
2017-08-29T06:33:18.412Z,20.20
2017-08-29T06:35:44.833Z,20.23
2017-08-29T06:38:11.186Z,20.29
2017-08-29T06:40:37.552Z,20.29
2017-08-29T06:43:03.957Z,20.32
2017-08-29T06:45:30.302Z,20.35
2017-08-29T06:47:56.664Z,20.41
2017-08-29T06:50:23.001Z,20.51
2017-08-29T06:52:49.357Z,20.54
2017-08-29T06:55:15.726Z,20.61
2017-08-29T06:57:42.097Z,20.67
2017-08-29T07:00:08.495Z,20.72
2017-08-29T07:02:34.902Z,20.81
2017-08-29T07:05:01.313Z,21.04
2017-08-29T07:07:27.725Z,21.17
2017-08-29T07:09:54.130Z,21.18
2017-08-29T07:12:20.558Z,21.30
2017-08-29T07:17:13.130Z,21.51
2017-08-29T07:19:39.512Z,21.44
2017-08-29T07:22:05.893Z,21.73
2017-08-29T07:24:32.307Z,21.77
2017-08-29T07:26:58.714Z,21.80
2017-08-29T07:29:25.096Z,21.92
2017-08-29T07:31:51.491Z,22.09
2017-08-29T07:34:17.893Z,22.18
2017-08-29T07:36:44.253Z,22.37
2017-08-29T07:39:10.628Z,22.34
2017-08-29T07:41:37.052Z,22.44
2017-08-29T07:44:03.439Z,22.64
2017-08-29T07:46:29.817Z,22.72
2017-08-29T07:48:56.275Z,22.73
2017-08-29T07:51:22.692Z,22.71
2017-08-29T07:53:49.052Z,22.65
2017-08-29T07:56:15.423Z,22.83
2017-08-29T07:58:41.885Z,23.15
2017-08-29T08:01:08.262Z,23.40
2017-08-29T08:03:34.654Z,23.58
2017-08-29T08:06:01.025Z,23.45
2017-08-29T08:08:27.399Z,23.50
2017-08-29T08:10:53.801Z,23.54
2017-08-29T08:13:20.229Z,23.89
2017-08-29T08:15:46.627Z,24.15
2017-08-29T08:18:13.012Z,24.23
2017-08-29T08:20:39.401Z,24.20
2017-08-29T08:23:05.775Z,24.36
2017-08-29T08:25:32.156Z,24.58
2017-08-29T08:27:58.644Z,24.50
2017-08-29T08:30:25.058Z,25.02
2017-08-29T08:32:51.469Z,25.02
2017-08-29T08:35:17.907Z,24.84
2017-08-29T08:37:44.306Z,24.85
2017-08-29T08:40:10.685Z,24.89
2017-08-29T08:42:37.107Z,24.73
2017-08-29T08:45:03.499Z,24.77
2017-08-29T08:47:29.893Z,25.00
2017-08-29T08:49:56.247Z,25.72
2017-08-29T08:52:22.625Z,25.72
2017-08-29T08:54:48.997Z,25.76
2017-08-29T08:57:15.421Z,25.99
2017-08-29T08:59:41.829Z,26.41
2017-08-29T09:02:08.580Z,26.37
2017-08-29T09:04:35.481Z,26.27
2017-08-29T09:07:01.900Z,26.16
2017-08-29T09:09:28.564Z,26.74
2017-08-29T09:11:55.266Z,26.47
2017-08-29T09:14:21.703Z,26.66
2017-08-29T09:16:48.202Z,26.89
2017-08-29T09:19:14.641Z,26.86
2017-08-29T09:21:41.071Z,26.42
2017-08-29T09:24:07.486Z,26.65
2017-08-29T09:26:33.904Z,27.23
2017-08-29T09:29:00.328Z,27.62
2017-08-29T09:31:26.909Z,27.70
2017-08-29T09:33:53.469Z,27.47
2017-08-29T09:36:19.876Z,27.46
2017-08-29T09:38:46.296Z,27.54
2017-08-29T09:41:12.730Z,27.64
2017-08-29T09:43:39.177Z,27.27
2017-08-29T09:46:05.651Z,27.31
2017-08-29T09:48:32.107Z,27.43
2017-08-29T09:50:58.619Z,27.78
2017-08-29T09:53:25.024Z,28.25
2017-08-29T09:55:51.521Z,28.45
2017-08-29T09:58:17.970Z,28.55
2017-08-29T10:00:44.380Z,28.16
2017-08-29T10:03:10.774Z,28.27
2017-08-29T10:05:37.118Z,28.40
2017-08-29T10:08:03.489Z,28.63
2017-08-29T10:10:29.854Z,28.57
2017-08-29T10:12:56.362Z,28.73
2017-08-29T10:15:22.811Z,28.85
2017-08-29T10:17:49.331Z,28.51
2017-08-29T10:20:15.861Z,28.99
2017-08-29T10:22:42.260Z,28.80
2017-08-29T10:25:08.666Z,28.72
2017-08-29T10:27:35.173Z,28.49
2017-08-29T10:30:01.600Z,28.54
2017-08-29T10:32:28.022Z,28.63
2017-08-29T10:34:54.397Z,29.09
2017-08-29T10:37:20.820Z,29.62
2017-08-29T10:39:47.200Z,29.79
2017-08-29T10:42:13.600Z,29.43
2017-08-29T10:44:39.989Z,29.34
2017-08-29T10:47:06.346Z,29.74
2017-08-29T10:49:32.733Z,29.68
2017-08-29T10:51:59.459Z,29.54
2017-08-29T10:54:25.891Z,30.02
2017-08-29T10:56:52.293Z,30.37
2017-08-29T10:59:18.701Z,30.31
2017-08-29T11:01:45.069Z,30.01
2017-08-29T11:04:11.450Z,30.69
2017-08-29T11:06:37.841Z,30.42
2017-08-29T11:09:04.249Z,30.23
2017-08-29T11:11:30.645Z,30.50
2017-08-29T11:13:57.002Z,30.37
2017-08-29T11:16:23.406Z,30.42
2017-08-29T11:18:49.795Z,30.82
2017-08-29T11:21:16.210Z,30.53
2017-08-29T11:23:42.642Z,30.80
2017-08-29T11:26:09.038Z,30.75
2017-08-29T11:28:35.520Z,31.10
2017-08-29T11:31:02.214Z,31.02
2017-08-29T11:33:28.637Z,30.64
2017-08-29T11:35:55.049Z,30.81
2017-08-29T11:38:21.490Z,30.77
2017-08-29T11:40:47.919Z,30.63
2017-08-29T11:43:14.358Z,30.47
2017-08-29T11:45:40.768Z,30.20
2017-08-29T11:48:07.166Z,30.46
2017-08-29T11:50:33.670Z,30.77
2017-08-29T11:53:00.143Z,30.72
2017-08-29T11:55:26.587Z,30.77
2017-08-29T11:57:53.011Z,31.20
2017-08-29T12:00:19.438Z,31.20
2017-08-29T12:02:45.875Z,30.87
2017-08-29T12:05:12.280Z,31.04
2017-08-29T12:07:38.714Z,31.34
2017-08-29T12:10:05.168Z,31.41
2017-08-29T12:12:31.620Z,31.53
2017-08-29T12:14:58.031Z,31.43
2017-08-29T12:17:24.380Z,31.26
2017-08-29T12:19:50.795Z,31.45
2017-08-29T12:22:17.150Z,32.67
2017-08-29T12:24:43.494Z,32.00
2017-08-29T12:27:09.893Z,31.85
2017-08-29T12:29:36.239Z,31.64
2017-08-29T12:32:02.613Z,31.46
2017-08-29T12:34:29.004Z,31.92
2017-08-29T12:36:55.346Z,31.62
2017-08-29T12:39:21.688Z,31.84
2017-08-29T12:41:48.046Z,32.23
2017-08-29T12:44:14.494Z,31.82
2017-08-29T12:46:40.930Z,32.06
2017-08-29T12:49:07.308Z,32.02
2017-08-29T12:51:33.733Z,32.58
2017-08-29T12:54:00.078Z,32.31
2017-08-29T12:56:26.459Z,32.20
2017-08-29T12:58:52.847Z,32.63
2017-08-29T13:01:19.268Z,32.66
2017-08-29T13:03:45.660Z,32.21
2017-08-29T13:06:12.094Z,32.28
2017-08-29T13:08:38.477Z,32.39
2017-08-29T13:11:04.828Z,32.26
2017-08-29T13:13:31.222Z,32.67
2017-08-29T13:15:57.589Z,32.39
2017-08-29T13:18:23.974Z,32.50
2017-08-29T13:20:50.408Z,32.50
2017-08-29T13:23:16.818Z,32.39
2017-08-29T13:25:43.199Z,32.23
2017-08-29T13:28:09.628Z,32.89
2017-08-29T13:30:35.980Z,32.71
2017-08-29T13:33:02.380Z,33.21
2017-08-29T13:35:28.766Z,33.15
2017-08-29T13:37:55.153Z,32.80
2017-08-29T13:40:21.520Z,32.81
2017-08-29T13:42:47.878Z,32.62
2017-08-29T13:45:14.263Z,32.37
2017-08-29T13:47:40.637Z,32.65
2017-08-29T13:50:07.030Z,32.80
2017-08-29T13:52:33.398Z,32.41
2017-08-29T13:54:59.802Z,32.74
2017-08-29T13:57:26.176Z,32.92
2017-08-29T13:59:52.554Z,32.70
2017-08-29T14:02:18.966Z,32.87
2017-08-29T14:04:45.327Z,32.54
2017-08-29T14:07:11.727Z,32.85
2017-08-29T14:09:38.133Z,32.68
2017-08-29T14:12:04.516Z,32.65
2017-08-29T14:14:30.942Z,32.99
2017-08-29T14:16:57.290Z,32.95
2017-08-29T14:19:23.657Z,32.64
2017-08-29T14:21:50.031Z,32.57
2017-08-29T14:24:16.430Z,33.14
2017-08-29T14:26:42.803Z,33.02
2017-08-29T14:29:09.173Z,33.23
2017-08-29T14:31:35.575Z,33.05
2017-08-29T14:34:01.935Z,32.50
2017-08-29T14:36:28.336Z,32.82
2017-08-29T14:38:56.947Z,32.51
2017-08-29T14:41:23.331Z,32.57
2017-08-29T14:43:49.723Z,32.72
2017-08-29T14:46:16.191Z,33.02
2017-08-29T14:48:54.817Z,32.81
2017-08-29T14:51:21.212Z,32.71
2017-08-29T14:53:47.652Z,33.12
2017-08-29T14:56:14.068Z,32.69
2017-08-29T14:58:40.480Z,32.62
2017-08-29T15:01:06.892Z,32.97
2017-08-29T15:03:33.294Z,32.61
2017-08-29T15:05:59.709Z,32.68
2017-08-29T15:08:26.104Z,32.86
2017-08-29T15:10:52.563Z,32.75
2017-08-29T15:13:18.942Z,32.51
2017-08-29T15:15:45.296Z,32.82
2017-08-29T15:18:11.731Z,33.17
2017-08-29T15:20:38.105Z,32.99
2017-08-29T15:23:04.536Z,32.75
2017-08-29T15:25:30.987Z,32.60
2017-08-29T15:27:57.360Z,32.40
2017-08-29T15:30:23.762Z,32.94
2017-08-29T15:32:50.142Z,32.73
2017-08-29T15:35:16.524Z,32.45
2017-08-29T15:37:42.947Z,33.00
2017-08-29T15:40:09.369Z,32.71
2017-08-29T15:42:35.756Z,32.62
2017-08-29T15:45:02.167Z,32.63
2017-08-29T15:47:28.571Z,32.18
2017-08-29T15:49:54.961Z,32.32
2017-08-29T15:52:21.627Z,32.73
2017-08-29T15:54:48.014Z,32.47
2017-08-29T15:57:14.442Z,32.42
2017-08-29T15:59:40.829Z,32.80
2017-08-29T16:02:07.226Z,32.22
2017-08-29T16:04:33.624Z,31.96
2017-08-29T16:07:00.049Z,31.81
2017-08-29T16:09:26.441Z,31.57
2017-08-29T16:11:52.843Z,31.46
2017-08-29T16:14:19.252Z,31.61
2017-08-29T16:16:45.656Z,31.50
2017-08-29T16:19:12.049Z,31.48
2017-08-29T16:21:38.470Z,31.44
2017-08-29T16:24:04.869Z,31.39
2017-08-29T16:26:31.268Z,31.57
2017-08-29T16:28:57.669Z,31.47
2017-08-29T16:31:24.105Z,31.17
2017-08-29T16:33:50.686Z,31.12
2017-08-29T16:36:17.088Z,30.99
2017-08-29T16:38:43.465Z,30.92
2017-08-29T16:41:09.857Z,31.06
2017-08-29T16:43:36.295Z,30.93
2017-08-29T16:46:02.681Z,30.78
2017-08-29T16:48:29.074Z,30.77
2017-08-29T16:50:55.529Z,30.65
2017-08-29T16:53:21.947Z,30.60
2017-08-29T16:55:48.337Z,30.72
2017-08-29T16:58:14.867Z,30.79
2017-08-29T17:00:41.259Z,30.80
2017-08-29T17:03:07.667Z,30.69
2017-08-29T17:05:34.115Z,30.57
2017-08-29T17:08:04.043Z,30.65
2017-08-29T17:10:30.507Z,30.54
2017-08-29T17:12:56.862Z,30.44
2017-08-29T17:15:23.619Z,30.40
2017-08-29T17:17:50.087Z,30.45
2017-08-29T17:20:16.795Z,30.60
2017-08-29T17:22:43.758Z,30.27
2017-08-29T17:25:10.202Z,30.33
2017-08-29T17:27:36.577Z,30.25
2017-08-29T17:30:02.981Z,30.17
2017-08-29T17:32:29.439Z,30.06
2017-08-29T17:34:55.816Z,29.95
2017-08-29T17:37:22.269Z,29.93
2017-08-29T17:39:48.636Z,29.79
2017-08-29T17:42:15.034Z,29.80
2017-08-29T17:44:41.492Z,29.66
2017-08-29T17:47:08.083Z,29.62
2017-08-29T17:49:34.480Z,29.50
2017-08-29T17:52:00.932Z,29.10
2017-08-29T17:54:27.416Z,28.95
2017-08-29T17:56:53.779Z,28.78
2017-08-29T17:59:20.185Z,29.01
2017-08-29T18:01:46.765Z,28.76
2017-08-29T18:05:36.977Z,28.72
2017-08-29T18:08:03.393Z,28.17
2017-08-29T18:10:29.778Z,27.91
2017-08-29T18:14:15.067Z,27.81
2017-08-29T18:16:46.272Z,27.79
2017-08-29T18:19:55.425Z,27.90
2017-08-29T18:22:22.338Z,28.96
2017-08-29T18:24:49.230Z,28.30
2017-08-29T18:27:16.259Z,27.73
2017-08-29T18:29:43.204Z,27.73
2017-08-29T18:32:10.091Z,28.19
2017-08-29T18:34:37.020Z,27.65
2017-08-29T18:37:03.937Z,27.77
2017-08-29T18:39:30.854Z,26.82
2017-08-29T18:41:57.744Z,26.93
2017-08-29T18:44:24.625Z,27.31
2017-08-29T18:46:51.503Z,26.43
2017-08-29T18:49:18.392Z,26.58
2017-08-29T18:51:45.270Z,26.44
2017-08-29T18:54:12.129Z,26.47
2017-08-29T18:56:39.195Z,26.26
2017-08-29T18:59:06.171Z,25.90
2017-08-29T19:01:33.023Z,26.16
2017-08-29T19:03:59.890Z,25.73
2017-08-29T19:06:26.802Z,25.64
2017-08-29T19:08:53.653Z,25.59
2017-08-29T19:11:20.842Z,25.67
2017-08-29T19:13:47.748Z,25.31
2017-08-29T19:16:14.807Z,25.28
2017-08-29T19:18:41.811Z,25.06
2017-08-29T19:21:08.765Z,25.14
2017-08-29T19:23:35.669Z,25.07
2017-08-29T19:26:02.596Z,25.61
2017-08-29T19:28:29.543Z,24.98
2017-08-29T19:30:56.458Z,25.08
2017-08-29T19:33:23.535Z,25.16
2017-08-29T19:35:50.488Z,24.85
2017-08-29T19:38:17.391Z,24.84
2017-08-29T19:40:44.294Z,25.24
2017-08-29T19:43:11.474Z,25.00
2017-08-29T19:45:38.417Z,24.56
2017-08-29T19:48:05.340Z,24.72
2017-08-29T19:50:32.264Z,24.40
2017-08-29T19:52:59.193Z,24.28
2017-08-29T19:55:26.111Z,24.24
2017-08-29T19:57:53.040Z,24.86
2017-08-29T20:00:19.967Z,24.41
2017-08-29T20:02:47.627Z,24.34
2017-08-29T20:05:14.535Z,24.34
2017-08-29T20:07:41.570Z,24.15
2017-08-29T20:10:08.455Z,23.85
2017-08-29T20:12:35.391Z,23.74
2017-08-29T20:15:02.629Z,23.82
2017-08-29T20:17:29.522Z,23.94
2017-08-29T20:19:56.406Z,24.07
2017-08-29T20:22:23.376Z,23.95
2017-08-29T20:24:50.710Z,23.72
2017-08-29T20:27:17.908Z,23.64
2017-08-29T20:29:44.881Z,24.01
2017-08-29T20:32:11.963Z,23.55
2017-08-29T20:34:38.827Z,24.06
2017-08-29T20:37:06.215Z,23.57
2017-08-29T20:39:34.460Z,23.42
2017-08-29T20:42:01.482Z,23.36
2017-08-29T20:44:28.374Z,23.77
2017-08-29T20:46:55.322Z,23.74
2017-08-29T20:49:22.274Z,23.21
2017-08-29T20:51:49.207Z,23.28
2017-08-29T20:54:16.132Z,23.57
2017-08-29T20:56:43.047Z,23.24
2017-08-29T20:59:09.951Z,23.77
2017-08-29T21:01:36.840Z,23.19
2017-08-29T21:04:03.764Z,23.00
2017-08-29T21:06:30.693Z,22.88
2017-08-29T21:09:01.318Z,23.15
2017-08-29T21:11:28.478Z,22.91
2017-08-29T21:13:55.374Z,22.71
2017-08-29T21:16:22.354Z,22.86
2017-08-29T21:18:49.307Z,22.67
2017-08-29T21:21:16.257Z,22.66
2017-08-29T21:23:43.183Z,22.55
2017-08-29T21:26:10.117Z,22.51
2017-08-29T21:28:36.998Z,22.75
2017-08-29T21:31:03.898Z,22.42
2017-08-29T21:33:30.804Z,22.78
2017-08-29T21:35:57.749Z,22.73
2017-08-29T21:38:24.636Z,22.55
2017-08-29T21:40:51.519Z,22.50
2017-08-29T21:43:18.425Z,22.40
2017-08-29T21:45:45.344Z,22.27
2017-08-29T21:48:12.226Z,22.57
2017-08-29T21:50:40.594Z,22.64
2017-08-29T21:53:08.199Z,22.41
2017-08-29T21:55:35.435Z,22.41
2017-08-29T21:58:02.716Z,22.33
2017-08-29T22:00:29.701Z,22.11
2017-08-29T22:02:56.584Z,21.78
2017-08-29T22:05:23.519Z,21.91
2017-08-29T22:07:50.434Z,22.11
2017-08-29T22:10:17.327Z,22.68
2017-08-29T22:12:44.247Z,22.62
2017-08-29T22:15:11.169Z,22.27
2017-08-29T22:17:38.192Z,23.13
2017-08-29T22:20:05.063Z,23.22
2017-08-29T22:22:31.959Z,23.35
2017-08-29T22:24:58.886Z,23.56
2017-08-29T22:27:25.775Z,23.61
2017-08-29T22:29:52.683Z,23.52
2017-08-29T22:32:25.374Z,23.33
2017-08-29T22:34:52.277Z,22.88
2017-08-29T22:37:19.196Z,23.00
2017-08-29T22:39:46.247Z,22.92
2017-08-29T22:42:13.152Z,22.53
2017-08-29T22:44:40.015Z,23.19
2017-08-29T22:47:06.891Z,22.69
2017-08-29T22:49:35.805Z,22.64
2017-08-29T22:52:02.682Z,22.12
2017-08-29T22:54:29.948Z,22.48
2017-08-29T22:56:56.814Z,22.39
2017-08-29T22:59:27.044Z,22.30
2017-08-29T23:01:54.055Z,22.01
2017-08-29T23:04:20.955Z,22.31
2017-08-29T23:06:47.837Z,22.30
2017-08-29T23:09:14.735Z,22.42
2017-08-29T23:11:41.762Z,22.68
2017-08-29T23:14:08.708Z,22.99
2017-08-29T23:16:35.948Z,22.64
2017-08-29T23:19:02.867Z,22.12
2017-08-29T23:21:29.769Z,22.15
2017-08-29T23:23:56.656Z,21.96
2017-08-29T23:26:23.518Z,22.16
2017-08-29T23:28:50.453Z,22.30
2017-08-29T23:31:17.332Z,22.24
2017-08-29T23:33:44.216Z,22.27
2017-08-29T23:36:11.121Z,22.34
2017-08-29T23:38:37.975Z,22.88
2017-08-29T23:41:04.902Z,22.45
2017-08-29T23:43:31.775Z,22.50
2017-08-29T23:45:58.658Z,22.77
2017-08-29T23:48:25.594Z,22.57
2017-08-29T23:50:52.484Z,22.44
2017-08-29T23:53:19.362Z,22.02
2017-08-29T23:55:46.241Z,22.54
2017-08-29T23:58:13.113Z,22.50
